Time;durP1;ratioP1;P1;durP2;ratioP2;P2;SDS_P1;SDS_P2;PMS_P1;PMS_P2;Temp;Humidity;BMP_temperature;BMP_pressure;BME280_temperature;BME280_humidity;BME280_pressure;Samples;Min_cycle;Max_cycle;Signal;HPM_P1;HPM_P2
2022/07/07 00:00:25;;;;;;;1.08;1.08;;;19.50;99.90;;;;;;4193882;28;20407;-50
2022/07/07 00:02:48;;;;;;;1.67;0.90;;;19.50;99.90;;;;;;4177411;28;20412;-51
2022/07/07 00:05:08;;;;;;;2.75;0.95;;;19.40;99.90;;;;;;4187814;28;20078;-51
2022/07/07 00:07:29;;;;;;;2.22;0.90;;;19.30;99.90;;;;;;4193876;28;20132;-51
2022/07/07 00:09:51;;;;;;;2.83;1.30;;;19.10;99.90;;;;;;4193514;28;20525;-51
2022/07/07 00:12:12;;;;;;;1.15;1.10;;;19.00;99.90;;;;;;4193483;28;20040;-50
2022/07/07 00:14:34;;;;;;;1.00;1.00;;;18.90;99.90;;;;;;4193691;28;20132;-50
2022/07/07 00:16:56;;;;;;;3.67;1.00;;;18.80;99.90;;;;;;4192909;28;20047;-49
2022/07/07 00:19:17;;;;;;;1.73;0.90;;;18.70;99.90;;;;;;4194046;28;20523;-50
2022/07/07 00:21:38;;;;;;;1.00;0.90;;;18.70;99.90;;;;;;4193451;28;20063;-49
2022/07/07 00:23:58;;;;;;;0.90;0.90;;;18.70;99.90;;;;;;4193556;28;20117;-49
2022/07/07 00:26:19;;;;;;;0.98;0.90;;;18.80;99.90;;;;;;4193690;28;20132;-49
2022/07/07 00:28:39;;;;;;;2.53;1.10;;;18.70;99.90;;;;;;4193633;28;20059;-50
2022/07/07 00:31:00;;;;;;;3.75;1.33;;;18.70;99.90;;;;;;4193288;28;20098;-51
2022/07/07 00:33:21;;;;;;;1.15;0.90;;;18.70;99.90;;;;;;4193442;28;20083;-50
2022/07/07 00:35:42;;;;;;;1.02;1.00;;;18.70;99.90;;;;;;4193604;28;20050;-51
2022/07/07 00:38:03;;;;;;;1.35;0.80;;;18.70;99.90;;;;;;4177507;28;20099;-48
2022/07/07 00:40:24;;;;;;;2.00;1.10;;;18.80;99.90;;;;;;4188884;28;20052;-49
2022/07/07 00:42:44;;;;;;;1.88;0.90;;;18.90;99.90;;;;;;4193866;28;20106;-50
2022/07/07 00:45:06;;;;;;;2.03;0.80;;;18.90;99.90;;;;;;4193838;28;20230;-50
2022/07/07 00:47:27;;;;;;;1.95;0.90;;;18.80;99.90;;;;;;4177209;28;20063;-50
2022/07/07 00:49:47;;;;;;;2.83;0.95;;;18.80;99.90;;;;;;4187044;28;20125;-51
2022/07/07 00:52:10;;;;;;;1.17;1.02;;;18.80;99.90;;;;;;4193432;28;20047;-50
2022/07/07 00:54:30;;;;;;;2.00;0.90;;;18.80;99.90;;;;;;4193615;28;20048;-51
2022/07/07 00:56:51;;;;;;;1.10;0.80;;;18.90;99.90;;;;;;4193478;28;20342;-51
2022/07/07 00:59:34;;;;;;;0.82;0.80;;;18.80;99.90;;;;;;4195914;28;20052;-50
2022/07/07 01:01:55;;;;;;;;;;;18.80;99.90;;;;;;4196873;28;20048;-50
2022/07/07 01:04:17;;;;;;;2.15;1.48;;;18.70;99.90;;;;;;4196755;28;19927;-50
2022/07/07 01:06:39;;;;;;;2.22;1.10;;;18.50;99.90;;;;;;4179871;28;20478;-50
2022/07/07 01:09:00;;;;;;;0.95;0.95;;;18.40;99.90;;;;;;4190382;28;20514;-49
2022/07/07 01:11:21;;;;;;;1.45;1.00;;;18.40;99.90;;;;;;4195905;28;20059;-51
2022/07/07 01:13:41;;;;;;;4.03;1.80;;;18.50;99.90;;;;;;4196458;28;20544;-49
2022/07/07 01:16:02;;;;;;;1.02;1.00;;;18.40;99.90;;;;;;4196138;28;20055;-49
2022/07/07 01:18:23;;;;;;;1.13;1.00;;;18.40;99.90;;;;;;4192089;28;20164;-50
2022/07/07 01:20:47;;;;;;;1.95;1.38;;;18.50;99.90;;;;;;4196632;28;20132;-50
2022/07/07 01:23:08;;;;;;;4.80;1.42;;;18.40;99.90;;;;;;4196074;28;20426;-50
2022/07/07 01:25:29;;;;;;;1.90;0.90;;;18.30;99.90;;;;;;4196363;28;20509;-51
2022/07/07 01:27:51;;;;;;;1.30;1.00;;;18.30;99.90;;;;;;4195934;28;20098;-50
2022/07/07 01:30:13;;;;;;;6.18;0.95;;;18.20;99.90;;;;;;4195896;28;20106;-50
2022/07/07 01:32:33;;;;;;;0.95;0.95;;;18.10;99.90;;;;;;4195919;28;20163;-49
2022/07/07 01:34:54;;;;;;;1.00;1.00;;;18.10;99.90;;;;;;4196142;28;20055;-50
2022/07/07 01:37:16;;;;;;;1.73;1.05;;;18.10;99.90;;;;;;4195532;28;20101;-48
2022/07/07 01:39:38;;;;;;;1.60;0.93;;;18.00;99.90;;;;;;4195816;28;20362;-50
2022/07/07 01:41:59;;;;;;;2.10;0.98;;;17.80;99.90;;;;;;4195977;28;20328;-49
2022/07/07 01:44:19;;;;;;;2.33;1.10;;;17.70;99.90;;;;;;4195503;28;20075;-49
2022/07/07 01:46:40;;;;;;;1.00;1.00;;;17.70;99.90;;;;;;4195612;28;20476;-50
2022/07/07 01:49:00;;;;;;;2.63;1.00;;;17.80;99.90;;;;;;4195918;28;20150;-50
2022/07/07 01:51:21;;;;;;;2.67;1.42;;;17.70;99.90;;;;;;4179279;28;20428;-50
2022/07/07 01:53:42;;;;;;;5.90;1.00;;;17.60;99.90;;;;;;4190467;28;20055;-51
2022/07/07 01:56:04;;;;;;;2.45;1.00;;;17.60;99.90;;;;;;4195939;28;20043;-50
2022/07/07 01:58:25;;;;;;;1.00;1.00;;;17.60;99.90;;;;;;4195673;28;20058;-50
2022/07/07 02:00:45;;;;;;;1.73;1.15;;;17.60;99.90;;;;;;4179145;28;20404;-51
2022/07/07 02:03:05;;;;;;;0.95;0.95;;;17.60;99.90;;;;;;4187844;28;20074;-50
2022/07/07 02:05:26;;;;;;;1.88;1.30;;;17.60;99.90;;;;;;4195206;28;20087;-49
2022/07/07 02:07:48;;;;;;;5.13;1.17;;;17.70;99.90;;;;;;4195110;28;20579;-50
2022/07/07 02:10:08;;;;;;;1.58;0.90;;;17.60;99.90;;;;;;4195291;28;20525;-50
2022/07/07 02:12:29;;;;;;;1.58;1.00;;;17.50;99.90;;;;;;4195393;28;20047;-50
2022/07/07 02:14:50;;;;;;;1.13;1.02;;;17.70;99.90;;;;;;4194986;28;20562;-48
2022/07/07 02:17:12;;;;;;;2.45;1.00;;;17.80;99.90;;;;;;4194465;28;20047;-49
2022/07/07 02:19:32;;;;;;;1.92;1.48;;;17.70;99.90;;;;;;4194989;28;20098;-50
2022/07/07 02:21:53;;;;;;;1.48;1.00;;;17.60;99.90;;;;;;4195391;28;20404;-50
2022/07/07 02:24:13;;;;;;;1.48;1.00;;;17.60;99.90;;;;;;4195432;28;20109;-51
2022/07/07 02:26:34;;;;;;;2.22;1.00;;;17.60;99.90;;;;;;4190845;28;20152;-50
2022/07/07 02:28:54;;;;;;;2.67;1.00;;;17.60;99.90;;;;;;4195463;28;20137;-50
2022/07/07 02:31:16;;;;;;;2.65;1.10;;;17.40;99.90;;;;;;4195752;28;20051;-50
2022/07/07 02:33:37;;;;;;;0.90;0.90;;;17.40;99.90;;;;;;4195034;28;20498;-50
2022/07/07 02:35:58;;;;;;;5.35;1.10;;;17.40;99.90;;;;;;4178513;28;20052;-47
2022/07/07 02:38:20;;;;;;;1.95;0.93;;;17.30;99.90;;;;;;4189272;28;20048;-50
2022/07/07 02:40:41;;;;;;;4.22;1.00;;;17.20;99.90;;;;;;4194704;28;20128;-51
2022/07/07 02:43:02;;;;;;;0.88;0.88;;;17.10;99.90;;;;;;4195093;28;20138;-51
2022/07/07 02:45:23;;;;;;;2.83;1.38;;;17.00;99.90;;;;;;4178888;28;20051;-50
2022/07/07 02:47:44;;;;;;;1.13;1.10;;;17.00;99.90;;;;;;4187618;28;20141;-50
2022/07/07 02:50:07;;;;;;;2.67;1.10;;;17.00;99.90;;;;;;4194322;28;20047;-51
2022/07/07 02:52:28;;;;;;;1.25;1.10;;;16.90;99.90;;;;;;4194837;28;20043;-50
2022/07/07 02:54:48;;;;;;;2.72;1.00;;;16.90;99.90;;;;;;4194770;28;20102;-51
2022/07/07 02:57:09;;;;;;;1.25;1.08;;;16.90;99.90;;;;;;4195012;28;20575;-48
2022/07/07 02:59:30;;;;;;;1.67;1.00;;;16.90;99.90;;;;;;4194884;28;20060;-50
2022/07/07 03:01:50;;;;;;;2.15;1.20;;;16.90;99.90;;;;;;4195194;28;20569;-50
2022/07/07 03:04:11;;;;;;;2.60;1.10;;;16.90;99.90;;;;;;4194412;28;20051;-51
2022/07/07 03:06:32;;;;;;;1.27;1.20;;;16.80;99.90;;;;;;4194282;28;20055;-49
2022/07/07 03:08:53;;;;;;;4.95;1.10;;;16.90;99.90;;;;;;4177886;28;20084;-50
2022/07/07 03:11:14;;;;;;;1.90;1.20;;;16.90;99.90;;;;;;4182966;28;20415;-51
2022/07/07 03:13:35;;;;;;;1.85;1.40;;;16.90;99.90;;;;;;4194317;28;20406;-49
2022/07/07 03:15:56;;;;;;;1.23;1.23;;;17.00;99.90;;;;;;4194582;28;20050;-50
2022/07/07 03:18:17;;;;;;;1.63;1.38;;;17.00;99.90;;;;;;4193841;28;20056;-50
2022/07/07 03:20:37;;;;;;;1.90;1.52;;;16.90;99.90;;;;;;4177724;28;20056;-49
2022/07/07 03:22:58;;;;;;;1.52;1.27;;;16.90;99.90;;;;;;4191136;28;20098;-50
2022/07/07 03:25:19;;;;;;;1.58;1.15;;;16.90;99.90;;;;;;4194320;28;20048;-50
2022/07/07 03:27:40;;;;;;;1.35;1.25;;;17.00;99.90;;;;;;4194487;28;20132;-50
2022/07/07 03:30:03;;;;;;;3.70;1.67;;;16.90;99.90;;;;;;4193805;28;20059;-49
2022/07/07 03:32:24;;;;;;;1.00;1.00;;;16.70;99.90;;;;;;4193854;28;20048;-50
2022/07/07 03:34:45;;;;;;;1.00;1.00;;;16.70;99.90;;;;;;4194117;28;20307;-49
2022/07/07 03:37:06;;;;;;;2.42;1.20;;;16.60;99.90;;;;;;4193893;28;20051;-50
2022/07/07 03:39:27;;;;;;;3.05;1.20;;;16.70;99.90;;;;;;4193888;28;20052;-50
2022/07/07 03:41:48;;;;;;;2.05;1.00;;;16.70;99.90;;;;;;4194353;28;20359;-51
2022/07/07 03:44:08;;;;;;;1.00;1.00;;;16.60;99.90;;;;;;4193762;28;20055;-49
2022/07/07 03:46:29;;;;;;;2.25;1.10;;;16.60;99.90;;;;;;4194119;28;20055;-49
2022/07/07 03:48:50;;;;;;;1.95;1.02;;;16.50;99.90;;;;;;4194151;28;20047;-50
2022/07/07 03:51:11;;;;;;;1.10;1.10;;;16.50;99.90;;;;;;4192904;28;20063;-50
2022/07/07 03:53:32;;;;;;;1.05;1.05;;;16.40;99.90;;;;;;4193901;28;20697;-50
2022/07/07 03:55:53;;;;;;;3.08;1.20;;;16.40;99.90;;;;;;4177795;28;20476;-51
2022/07/07 03:58:14;;;;;;;1.70;0.90;;;16.40;99.90;;;;;;4189430;28;20766;-50
2022/07/07 04:00:34;;;;;;;3.00;1.02;;;16.40;99.90;;;;;;4193744;28;20095;-50
2022/07/07 04:02:55;;;;;;;1.30;1.30;;;16.30;99.90;;;;;;4193979;28;20140;-49
2022/07/07 04:05:16;;;;;;;2.85;0.90;;;16.30;99.90;;;;;;4177087;28;20094;-51
2022/07/07 04:07:37;;;;;;;1.08;0.98;;;16.40;99.90;;;;;;4187688;28;20565;-49
2022/07/07 04:09:59;;;;;;;3.33;1.00;;;16.30;99.90;;;;;;4193269;28;20513;-50
2022/07/07 04:12:20;;;;;;;1.50;1.42;;;16.30;99.90;;;;;;4193888;28;20396;-49
2022/07/07 04:14:41;;;;;;;3.10;1.38;;;16.40;99.90;;;;;;4192972;28;20111;-49
2022/07/07 04:17:03;;;;;;;4.90;1.48;;;16.40;99.90;;;;;;4192749;28;20059;-51
2022/07/07 04:19:24;;;;;;;1.25;1.00;;;16.50;99.90;;;;;;4188152;28;20149;-49
2022/07/07 04:21:45;;;;;;;1.10;0.90;;;16.60;99.90;;;;;;4191283;28;20136;-48
2022/07/07 04:24:06;;;;;;;3.83;1.00;;;16.60;99.90;;;;;;4191251;28;20079;-47
2022/07/07 04:26:26;;;;;;;1.40;1.20;;;16.60;99.90;;;;;;4190763;28;20267;-49
2022/07/07 04:28:47;;;;;;;1.70;1.48;;;16.50;99.90;;;;;;4191487;28;20052;-49
2022/07/07 04:31:08;;;;;;;1.00;1.00;;;16.50;99.90;;;;;;4187734;28;20354;-50
2022/07/07 04:33:29;;;;;;;4.13;1.33;;;16.50;99.90;;;;;;4195539;28;20118;-49
2022/07/07 04:35:50;;;;;;;2.70;1.52;;;16.50;99.90;;;;;;4196785;28;20098;-50
2022/07/07 04:38:11;;;;;;;1.30;1.20;;;16.50;99.90;;;;;;4197013;28;20238;-50
2022/07/07 04:40:32;;;;;;;6.10;1.10;;;16.40;99.90;;;;;;4180304;28;20055;-49
2022/07/07 04:42:53;;;;;;;1.17;1.15;;;16.50;99.90;;;;;;4192201;28;20483;-48
2022/07/07 04:45:20;;;;;;;0.93;0.93;;;16.60;99.90;;;;;;4196423;28;20055;-50
2022/07/07 04:47:42;;;;;;;5.35;1.00;;;16.50;99.90;;;;;;4196392;28;20055;-49
2022/07/07 04:50:04;;;;;;;4.43;0.98;;;16.60;99.90;;;;;;4196557;28;20090;-49
2022/07/07 04:52:25;;;;;;;0.90;0.90;;;16.60;99.90;;;;;;4184344;28;20098;-50
2022/07/07 04:54:45;;;;;;;0.90;0.90;;;16.60;99.90;;;;;;4184475;28;20051;-50
2022/07/07 04:57:06;;;;;;;1.00;1.00;;;16.70;99.90;;;;;;4196037;28;20052;-49
2022/07/07 04:59:27;;;;;;;1.65;1.00;;;16.60;99.90;;;;;;4179800;28;20135;-49
2022/07/07 05:01:47;;;;;;;1.55;1.00;;;16.80;99.90;;;;;;4190077;28;20074;-49
2022/07/07 05:04:09;;;;;;;1.10;1.10;;;16.80;99.90;;;;;;4196164;28;20063;-50
2022/07/07 05:06:29;;;;;;;3.00;1.00;;;16.90;99.90;;;;;;4196051;28;20486;-48
2022/07/07 05:08:50;;;;;;;0.90;0.90;;;16.90;99.90;;;;;;4193841;28;20098;-48
2022/07/07 05:11:10;;;;;;;4.32;1.33;;;17.00;99.90;;;;;;4191670;28;20105;-49
2022/07/07 05:13:31;;;;;;;2.70;1.27;;;17.00;99.90;;;;;;4193437;28;20048;-49
2022/07/07 05:15:51;;;;;;;1.30;1.25;;;17.00;99.90;;;;;;4191420;28;20047;-47
2022/07/07 05:18:12;;;;;;;1.70;1.00;;;17.00;99.90;;;;;;4190393;28;20051;-50
2022/07/07 05:20:33;;;;;;;3.38;1.35;;;17.00;99.90;;;;;;4193788;28;20131;-53
2022/07/07 05:22:54;;;;;;;4.45;1.42;;;17.10;99.90;;;;;;4192009;28;20110;-51
2022/07/07 05:25:15;;;;;;;1.33;1.23;;;17.10;99.90;;;;;;4190817;28;20058;-52
2022/07/07 05:27:35;;;;;;;1.73;1.63;;;17.10;99.90;;;;;;4191098;28;20047;-46
2022/07/07 05:29:56;;;;;;;1.42;1.33;;;17.20;99.90;;;;;;4191529;28;20186;-46
2022/07/07 05:32:16;;;;;;;2.90;1.10;;;17.20;99.90;;;;;;4191621;28;20070;-45
2022/07/07 05:34:37;;;;;;;1.15;1.15;;;17.30;99.90;;;;;;4193638;28;20066;-45
2022/07/07 05:36:58;;;;;;;1.05;0.95;;;17.30;99.90;;;;;;4191544;28;20404;-48
2022/07/07 05:39:18;;;;;;;1.38;1.00;;;17.40;99.90;;;;;;4191050;28;20044;-46
2022/07/07 05:41:42;;;;;;;5.18;1.00;;;17.50;99.90;;;;;;4193786;28;20441;-47
2022/07/07 05:44:03;;;;;;;1.60;1.10;;;17.50;99.90;;;;;;4191327;28;20063;-47
2022/07/07 05:46:24;;;;;;;0.90;0.90;;;17.60;99.90;;;;;;4191523;28;20055;-47
2022/07/07 05:48:45;;;;;;;2.40;0.90;;;17.70;99.90;;;;;;4192735;28;20051;-45
2022/07/07 05:51:05;;;;;;;4.32;0.90;;;17.70;99.90;;;;;;4191350;28;20047;-48
2022/07/07 05:53:26;;;;;;;1.95;0.80;;;17.80;99.90;;;;;;4192349;28;20159;-48
2022/07/07 05:55:47;;;;;;;3.45;1.00;;;17.90;99.90;;;;;;4193270;28;20498;-45
2022/07/07 05:58:08;;;;;;;0.90;0.90;;;18.10;99.90;;;;;;4191527;28;20399;-46
2022/07/07 06:00:29;;;;;;;0.90;0.90;;;18.10;99.90;;;;;;4190369;28;20047;-48
2022/07/07 06:02:49;;;;;;;1.95;0.80;;;18.20;99.90;;;;;;4193318;28;20132;-47
2022/07/07 06:05:10;;;;;;;3.60;0.90;;;18.30;99.90;;;;;;4188940;28;20063;-47
2022/07/07 06:07:31;;;;;;;3.22;1.00;;;18.40;99.90;;;;;;4190544;28;20075;-46
2022/07/07 06:09:51;;;;;;;0.90;0.80;;;18.50;99.90;;;;;;4192193;28;20120;-46
2022/07/07 06:12:12;;;;;;;2.60;0.70;;;18.60;99.90;;;;;;4190579;28;20058;-46
2022/07/07 06:14:34;;;;;;;0.80;0.80;;;18.70;99.90;;;;;;4192999;28;20048;-49
2022/07/07 06:16:54;;;;;;;2.63;0.80;;;18.90;99.90;;;;;;4192835;28;20137;-48
2022/07/07 06:19:15;;;;;;;2.22;0.88;;;19.00;99.90;;;;;;4190740;28;20141;-46
2022/07/07 06:21:37;;;;;;;0.77;0.77;;;19.10;99.90;;;;;;4193210;28;20051;-47
2022/07/07 06:23:58;;;;;;;0.70;0.70;;;19.30;99.90;;;;;;4192950;28;20047;-46
2022/07/07 06:26:19;;;;;;;2.25;0.70;;;19.40;99.90;;;;;;4193167;28;20071;-46
2022/07/07 06:28:39;;;;;;;1.15;0.70;;;19.60;99.90;;;;;;4178564;28;20657;-48
2022/07/07 06:31:00;;;;;;;2.08;0.60;;;20.00;99.90;;;;;;4187827;28;20170;-48
2022/07/07 06:33:20;;;;;;;1.67;0.70;;;20.00;99.90;;;;;;4194951;28;20094;-49
2022/07/07 06:35:41;;;;;;;1.42;0.60;;;20.10;99.90;;;;;;4195186;28;20507;-49
2022/07/07 06:38:03;;;;;;;0.70;0.60;;;20.20;99.90;;;;;;4194587;28;20051;-47
2022/07/07 06:40:23;;;;;;;0.82;0.63;;;20.30;99.90;;;;;;4195264;28;20078;-49
2022/07/07 06:42:44;;;;;;;0.60;0.60;;;20.50;99.90;;;;;;4194797;28;20124;-48
2022/07/07 06:45:06;;;;;;;0.60;0.55;;;20.70;99.90;;;;;;4178680;28;20048;-48
2022/07/07 06:47:27;;;;;;;0.60;0.60;;;21.00;99.90;;;;;;4191741;28;20047;-49
2022/07/07 06:49:48;;;;;;;0.60;0.60;;;21.40;99.90;;;;;;4194662;28;20047;-47
2022/07/07 06:52:09;;;;;;;1.88;0.90;;;21.40;99.90;;;;;;4194756;28;20059;-50
2022/07/07 06:54:30;;;;;;;0.83;0.57;;;21.40;99.90;;;;;;4177681;28;20047;-47
2022/07/07 06:56:51;;;;;;;0.60;0.60;;;21.50;99.90;;;;;;4193143;28;20050;-49
2022/07/07 06:59:12;;;;;;;1.95;0.65;;;21.60;99.90;;;;;;4194832;28;20525;-49
2022/07/07 07:01:33;;;;;;;1.30;0.60;;;21.70;99.90;;;;;;4194775;28;20517;-49
2022/07/07 07:03:53;;;;;;;1.60;0.90;;;22.00;99.90;;;;;;4178532;28;20056;-50
2022/07/07 07:06:15;;;;;;;0.95;0.77;;;22.20;99.90;;;;;;4188685;28;20166;-47
2022/07/07 07:08:35;;;;;;;2.65;0.50;;;22.50;99.90;;;;;;4192206;28;20052;-49
2022/07/07 07:10:56;;;;;;;0.50;0.50;;;22.80;99.90;;;;;;4194363;28;20507;-49
2022/07/07 07:13:17;;;;;;;0.77;0.60;;;22.90;99.90;;;;;;4194312;28;20406;-49
2022/07/07 07:15:39;;;;;;;0.50;0.50;;;23.10;99.90;;;;;;4193286;28;20628;-48
2022/07/07 07:18:00;;;;;;;0.60;0.60;;;23.40;99.90;;;;;;4194015;28;20075;-48
2022/07/07 07:20:21;;;;;;;0.43;0.43;;;23.90;99.90;;;;;;4194551;28;20047;-48
2022/07/07 07:22:41;;;;;;;0.50;0.50;;;23.80;99.90;;;;;;4194016;28;20062;-49
2022/07/07 07:25:03;;;;;;;0.50;0.50;;;23.80;99.90;;;;;;4194074;28;20315;-49
2022/07/07 07:27:23;;;;;;;3.55;0.50;;;23.80;99.90;;;;;;4193237;28;20560;-50
2022/07/07 07:29:44;;;;;;;0.95;0.57;;;23.80;99.90;;;;;;4193396;28;20102;-49
2022/07/07 07:32:05;;;;;;;3.38;0.50;;;24.20;99.90;;;;;;4194128;28;20219;-49
2022/07/07 07:34:26;;;;;;;1.02;0.50;;;24.40;99.90;;;;;;4187640;28;20103;-50
2022/07/07 07:36:47;;;;;;;2.08;0.50;;;24.70;99.90;;;;;;4177923;28;20391;-49
2022/07/07 07:39:07;;;;;;;1.27;0.40;;;25.00;99.90;;;;;;4177420;28;20051;-48
2022/07/07 07:41:28;;;;;;;1.25;0.50;;;25.20;99.90;;;;;;4189602;28;20132;-45
2022/07/07 07:43:49;;;;;;;0.75;0.50;;;25.30;99.90;;;;;;4193881;28;20518;-48
2022/07/07 07:46:10;;;;;;;0.85;0.50;;;25.40;99.90;;;;;;4193978;28;20560;-48
2022/07/07 07:48:31;;;;;;;0.50;0.50;;;25.40;99.90;;;;;;4190590;28;20056;-50
2022/07/07 07:50:52;;;;;;;3.47;0.40;;;25.70;99.90;;;;;;4194073;28;20132;-49
2022/07/07 07:53:13;;;;;;;1.92;0.50;;;26.10;99.90;;;;;;4190490;28;20491;-49
2022/07/07 07:55:35;;;;;;;0.40;0.40;;;26.00;99.90;;;;;;4193601;28;20056;-46
2022/07/07 07:57:56;;;;;;;3.55;1.35;;;26.10;99.90;;;;;;4193566;28;20049;-50
2022/07/07 08:00:19;;;;;;;0.50;0.40;;;26.40;99.90;;;;;;4193502;28;20056;-49
2022/07/07 08:02:41;;;;;;;0.30;0.30;;;26.50;99.90;;;;;;4193718;28;20051;-50
2022/07/07 08:05:02;;;;;;;0.32;0.30;;;26.70;99.90;;;;;;4193898;28;20095;-49
2022/07/07 08:07:22;;;;;;;0.40;0.40;;;27.00;99.90;;;;;;4193436;28;20054;-49
2022/07/07 08:09:44;;;;;;;0.30;0.30;;;27.40;98.40;;;;;;4193482;28;20094;-50
2022/07/07 08:12:05;;;;;;;0.47;0.47;;;27.90;99.90;;;;;;4193649;28;20295;-50
2022/07/07 08:14:26;;;;;;;2.30;0.35;;;27.80;98.40;;;;;;4193739;28;20080;-50
2022/07/07 08:16:46;;;;;;;0.85;0.30;;;28.10;96.60;;;;;;4193583;28;20052;-48
2022/07/07 08:19:07;;;;;;;0.57;0.30;;;28.10;97.60;;;;;;4194092;28;20056;-49
2022/07/07 08:21:28;;;;;;;0.30;0.30;;;28.20;95.70;;;;;;4193794;28;20497;-49
2022/07/07 08:23:49;;;;;;;0.50;0.30;;;28.10;95.40;;;;;;4180370;28;20052;-50
2022/07/07 08:26:10;;;;;;;0.95;0.30;;;28.10;95.50;;;;;;4193852;28;20637;-50
2022/07/07 08:28:30;;;;;;;0.98;0.25;;;28.30;95.40;;;;;;4193293;28;20056;-50
2022/07/07 08:30:51;;;;;;;0.30;0.30;;;28.30;95.50;;;;;;4193793;28;20102;-49
2022/07/07 08:33:12;;;;;;;0.30;0.30;;;28.60;92.70;;;;;;4177245;28;20056;-49
2022/07/07 08:35:32;;;;;;;0.98;0.30;;;28.90;94.30;;;;;;4187362;28;20055;-50
2022/07/07 08:37:53;;;;;;;0.30;0.30;;;29.10;92.90;;;;;;4193748;28;20097;-49
2022/07/07 08:40:14;;;;;;;1.00;0.20;;;29.10;91.70;;;;;;4194045;28;20211;-50
2022/07/07 08:42:35;;;;;;;0.40;0.30;;;29.70;93.20;;;;;;4193437;28;20056;-49
2022/07/07 08:44:56;;;;;;;0.20;0.20;;;29.90;93.10;;;;;;4186283;28;20090;-49
2022/07/07 08:47:17;;;;;;;0.75;0.20;;;30.10;92.60;;;;;;4193446;28;20434;-50
2022/07/07 08:49:38;;;;;;;2.83;0.30;;;30.20;89.70;;;;;;4193857;28;20515;-48
2022/07/07 08:51:59;;;;;;;0.20;0.20;;;30.20;91.20;;;;;;4193618;28;20059;-50
2022/07/07 08:54:20;;;;;;;0.25;0.25;;;30.60;92.50;;;;;;4193133;28;20074;-50
2022/07/07 08:56:43;;;;;;;0.22;0.20;;;30.60;90.40;;;;;;4193997;28;20089;-50
2022/07/07 08:59:04;;;;;;;0.30;0.30;;;30.30;90.50;;;;;;4193375;28;20055;-51
2022/07/07 09:01:25;;;;;;;0.20;0.20;;;30.20;90.10;;;;;;4178578;28;20130;-48
2022/07/07 09:03:46;;;;;;;0.20;0.20;;;29.80;87.60;;;;;;4193347;28;20094;-47
2022/07/07 09:06:07;;;;;;;1.95;0.20;;;30.20;87.10;;;;;;4193365;28;20458;-46
2022/07/07 09:08:30;;;;;;;2.15;0.25;;;30.50;88.80;;;;;;4189565;28;20114;-49
2022/07/07 09:10:51;;;;;;;0.80;0.20;;;30.60;86.80;;;;;;4192802;28;20052;-50
2022/07/07 09:13:32;;;;;;;0.20;0.20;;;30.50;90.00;;;;;;4193845;28;20051;-49
2022/07/07 09:15:55;;;;;;;3.50;0.20;;;30.40;90.30;;;;;;4193518;28;20403;-50
2022/07/07 09:18:37;;;;;;;0.22;0.22;;;30.50;88.60;;;;;;4193826;28;20440;-50
2022/07/07 09:20:59;;;;;;;0.30;0.30;;;30.80;86.00;;;;;;4179993;28;20048;-46
2022/07/07 09:23:20;;;;;;;0.30;0.20;;;31.10;90.60;;;;;;4189515;28;20082;-51
2022/07/07 09:25:42;;;;;;;0.30;0.30;;;31.10;89.30;;;;;;4182661;28;20408;-50
2022/07/07 09:28:07;;;;;;;0.20;0.20;;;30.80;88.90;;;;;;4196593;28;20063;-50
2022/07/07 09:30:34;;;;;;;0.20;0.20;;;31.00;88.70;;;;;;4196154;28;20415;-50
2022/07/07 09:32:56;;;;;;;0.20;0.20;;;31.50;88.20;;;;;;4195991;28;20058;-50
2022/07/07 09:41:02;;;;;;;0.28;0.20;;;30.70;82.60;;;;;;4177013;28;20128;-49
2022/07/07 09:43:23;;;;;;;0.60;0.20;;;30.20;82.10;;;;;;4182940;28;20043;-50
2022/07/07 09:46:07;;;;;;;0.20;0.20;;;30.80;87.70;;;;;;4193340;28;20378;-48
2022/07/07 09:48:27;;;;;;;0.50;0.20;;;31.40;85.20;;;;;;4193608;28;20451;-51
2022/07/07 09:50:48;;;;;;;0.20;0.20;;;31.90;87.10;;;;;;4193432;28;20542;-51
2022/07/07 09:53:09;;;;;;;2.23;0.20;;;31.50;83.30;;;;;;4177331;28;20090;-51
2022/07/07 09:55:29;;;;;;;0.20;0.20;;;31.00;81.20;;;;;;4188358;28;20558;-49
2022/07/07 09:57:50;;;;;;;0.20;0.20;;;30.90;85.90;;;;;;4193433;28;20048;-50
2022/07/07 10:00:11;;;;;;;0.20;0.20;;;31.10;81.40;;;;;;4193205;28;20767;-50
2022/07/07 10:02:32;;;;;;;0.30;0.20;;;31.50;83.00;;;;;;4182995;28;20043;-50
2022/07/07 10:04:55;;;;;;;0.85;0.28;;;31.80;84.30;;;;;;4193144;28;20109;-49
2022/07/07 10:07:24;;;;;;;1.08;0.20;;;32.10;82.60;;;;;;4193285;28;20059;-51
2022/07/07 10:09:47;;;;;;;0.20;0.20;;;31.80;79.80;;;;;;4192401;28;20060;-50
2022/07/07 10:12:08;;;;;;;1.42;0.20;;;31.80;80.50;;;;;;4193000;28;20137;-50
2022/07/07 10:14:34;;;;;;;0.30;0.20;;;31.60;79.40;;;;;;4193142;28;20051;-51
2022/07/07 10:16:55;;;;;;;3.50;0.30;;;31.40;79.60;;;;;;4193178;28;20098;-50
2022/07/07 10:19:18;;;;;;;0.30;0.20;;;31.40;83.10;;;;;;4195593;28;20051;-50
2022/07/07 10:21:46;;;;;;;0.50;0.20;;;31.90;84.70;;;;;;4178810;28;20518;-51
2022/07/07 10:24:08;;;;;;;0.20;0.20;;;32.10;80.70;;;;;;4189761;28;20148;-50
2022/07/07 10:26:40;;;;;;;1.65;0.38;;;31.90;79.00;;;;;;4191299;28;20044;-50
2022/07/07 10:29:00;;;;;;;0.20;0.20;;;31.80;80.20;;;;;;4194599;28;20430;-48
2022/07/07 10:31:26;;;;;;;1.08;0.20;;;31.90;78.90;;;;;;4195235;28;20058;-49
2022/07/07 10:34:03;;;;;;;1.02;0.20;;;31.90;78.10;;;;;;4195305;28;20085;-50
2022/07/07 10:36:23;;;;;;;0.20;0.20;;;31.90;79.70;;;;;;4194022;28;20086;-50
2022/07/07 10:38:45;;;;;;;0.30;0.30;;;31.90;79.60;;;;;;4189831;28;20132;-49
2022/07/07 10:41:06;;;;;;;2.75;0.30;;;32.40;83.30;;;;;;4195201;28;20522;-50
2022/07/07 10:43:33;;;;;;;0.32;0.20;;;32.60;78.00;;;;;;4192196;28;20043;-50
2022/07/07 10:46:03;;;;;;;0.20;0.20;;;33.00;76.20;;;;;;4191059;28;20055;-51
2022/07/07 10:49:04;;;;;;;0.20;0.20;;;33.10;80.20;;;;;;4192233;28;20055;-51
2022/07/07 10:51:29;;;;;;;1.02;0.20;;;33.50;79.10;;;;;;4190716;28;20115;-49
2022/07/07 10:54:00;;;;;;;0.63;0.20;;;33.20;76.10;;;;;;4192286;28;20316;-50
2022/07/07 10:56:21;;;;;;;0.20;0.20;;;33.20;78.70;;;;;;4192534;28;20240;-50
2022/07/07 10:59:01;;;;;;;1.98;0.20;;;33.30;77.70;;;;;;4192408;28;20051;-50
2022/07/07 11:01:23;;;;;;;1.25;0.20;;;32.80;75.10;;;;;;4192437;28;20102;-50
2022/07/07 11:03:43;;;;;;;0.20;0.20;;;33.10;77.80;;;;;;4191364;28;20688;-50
2022/07/07 11:06:05;;;;;;;0.20;0.20;;;33.60;77.10;;;;;;4192107;28;20056;-50
2022/07/07 11:08:36;;;;;;;0.20;0.20;;;33.80;78.50;;;;;;4192349;28;20064;-50
2022/07/07 11:10:57;;;;;;;0.20;0.20;;;34.20;80.40;;;;;;4191517;28;20099;-50
2022/07/07 11:13:23;;;;;;;0.20;0.20;;;33.90;72.80;;;;;;4192111;28;20415;-50
2022/07/07 11:16:05;;;;;;;0.63;0.25;;;32.90;74.20;;;;;;4190792;28;20588;-51
2022/07/07 11:18:25;;;;;;;0.20;0.20;;;32.40;75.10;;;;;;4188564;28;20074;-49
2022/07/07 11:21:01;;;;;;;0.65;0.20;;;32.70;74.00;;;;;;4191551;28;20466;-51
2022/07/07 11:23:24;;;;;;;0.20;0.20;;;33.10;73.00;;;;;;4192023;28;20086;-51
2022/07/07 11:25:46;;;;;;;1.05;0.13;;;33.40;72.90;;;;;;4191932;28;20062;-50
2022/07/07 11:28:09;;;;;;;0.98;0.20;;;33.20;71.40;;;;;;4188111;28;20106;-50
2022/07/07 11:30:30;;;;;;;0.20;0.20;;;32.90;71.20;;;;;;4193767;28;20506;-51
2022/07/07 11:32:55;;;;;;;0.20;0.20;;;33.00;69.40;;;;;;4193476;28;20086;-49
2022/07/07 11:35:16;;;;;;;1.75;0.20;;;33.20;76.60;;;;;;4183323;28;20054;-50
2022/07/07 11:37:40;;;;;;;0.20;0.20;;;34.20;71.50;;;;;;4193623;28;20521;-49
2022/07/07 11:40:13;;;;;;;0.35;0.35;;;34.30;70.60;;;;;;4193665;28;20047;-49
2022/07/07 11:42:35;;;;;;;2.35;0.25;;;34.30;71.10;;;;;;4193883;28;20575;-48
2022/07/07 11:44:56;;;;;;;0.40;0.20;;;34.70;68.30;;;;;;4194374;28;20140;-48
2022/07/07 11:47:17;;;;;;;0.90;0.20;;;35.50;74.60;;;;;;4193966;28;20135;-48
2022/07/07 11:49:39;;;;;;;0.20;0.20;;;35.10;67.00;;;;;;4183305;28;20132;-49
2022/07/07 11:51:59;;;;;;;0.20;0.20;;;34.50;69.60;;;;;;4194051;28;20051;-48
2022/07/07 11:54:20;;;;;;;0.22;0.20;;;35.00;70.10;;;;;;4177901;28;20052;-48
2022/07/07 11:56:41;;;;;;;0.20;0.20;;;34.90;69.60;;;;;;4188664;28;20051;-46
2022/07/07 11:59:02;;;;;;;1.30;0.20;;;34.50;71.00;;;;;;4193884;28;20050;-46
2022/07/07 12:01:23;;;;;;;0.20;0.20;;;34.90;65.80;;;;;;4179396;28;20132;-49
2022/07/07 12:03:44;;;;;;;0.32;0.20;;;35.10;69.70;;;;;;4177429;28;20051;-48
2022/07/07 12:06:05;;;;;;;0.20;0.20;;;35.60;69.00;;;;;;4187417;28;20542;-48
2022/07/07 12:08:33;;;;;;;0.10;0.10;;;35.00;64.60;;;;;;4193651;28;20055;-49
2022/07/07 12:10:54;;;;;;;0.20;0.20;;;33.80;67.40;;;;;;4192594;28;20114;-46
2022/07/07 12:13:15;;;;;;;0.88;0.20;;;33.80;68.00;;;;;;4183031;28;20110;-47
2022/07/07 12:15:43;;;;;;;0.27;0.20;;;33.60;67.40;;;;;;4193228;28;20048;-49
2022/07/07 12:18:04;;;;;;;1.75;0.20;;;33.50;70.20;;;;;;4193150;28;20430;-48
2022/07/07 12:20:25;;;;;;;2.35;0.20;;;33.40;69.70;;;;;;4194125;28;20098;-47
2022/07/07 12:22:51;;;;;;;0.20;0.20;;;33.40;69.30;;;;;;4194224;28;20074;-49
2022/07/07 12:25:12;;;;;;;0.20;0.20;;;33.00;71.30;;;;;;4187008;28;20067;-47